createdAt,value
2023-04-10T00:01:45.481Z,42.57
2023-04-10T00:04:12.289Z,45.07
2023-04-10T00:06:39.114Z,41.10
2023-04-10T00:09:05.647Z,44.93
2023-04-10T00:11:32.132Z,42.53
2023-04-10T00:13:58.697Z,47.77
2023-04-10T00:16:25.488Z,43.13
2023-04-10T00:18:51.932Z,41.13
2023-04-10T00:21:18.544Z,44.10
2023-04-10T00:23:45.116Z,44.53
2023-04-10T00:26:11.638Z,43.63
2023-04-10T00:28:38.363Z,40.50
2023-04-10T00:31:05.432Z,43.73
2023-04-10T00:33:32.165Z,44.70
2023-04-10T00:35:58.826Z,40.87
2023-04-10T00:38:25.601Z,40.53
2023-04-10T00:40:52.100Z,46.23
2023-04-10T00:43:20.390Z,45.50
2023-04-10T00:45:48.857Z,45.27
2023-04-10T00:48:16.589Z,46.13
2023-04-10T00:50:43.378Z,45.17
2023-04-10T00:53:09.938Z,44.33
2023-04-10T00:55:37.080Z,42.87
2023-04-10T00:58:03.646Z,44.67
2023-04-10T01:00:31.001Z,48.67
2023-04-10T01:02:57.745Z,47.50
2023-04-10T01:05:25.678Z,44.63
2023-04-10T01:07:58.466Z,48.53
2023-04-10T01:10:37.345Z,50.63
2023-04-10T01:13:11.417Z,44.37
2023-04-10T01:15:42.768Z,46.30
2023-04-10T01:18:09.429Z,42.20
2023-04-10T01:20:38.012Z,48.80
2023-04-10T01:23:19.856Z,47.17
2023-04-10T01:25:46.689Z,45.23
2023-04-10T01:28:13.354Z,48.23
2023-04-10T01:30:40.489Z,42.27
2023-04-10T01:33:09.815Z,50.90
2023-04-10T01:35:36.982Z,51.37
2023-04-10T01:38:05.473Z,47.40
2023-04-10T01:40:32.963Z,47.30
2023-04-10T01:43:00.462Z,49.13
2023-04-10T01:45:28.193Z,47.17
2023-04-10T01:47:55.434Z,48.33
2023-04-10T01:50:25.401Z,52.27
2023-04-10T01:52:53.028Z,49.57
2023-04-10T01:55:20.765Z,52.67
2023-04-10T01:57:49.154Z,51.50
2023-04-10T02:00:16.510Z,52.43
2023-04-10T02:02:43.478Z,50.37
2023-04-10T02:05:13.550Z,47.33
2023-04-10T02:07:42.838Z,45.43
2023-04-10T02:10:11.412Z,47.70
2023-04-10T02:12:56.729Z,49.37
2023-04-10T02:15:24.413Z,48.77
2023-04-10T02:17:52.015Z,51.33
2023-04-10T02:20:18.976Z,52.20
2023-04-10T02:22:45.740Z,49.27
2023-04-10T02:25:12.484Z,53.27
2023-04-10T02:27:39.641Z,49.93
2023-04-10T02:30:06.746Z,49.10
2023-04-10T02:32:33.816Z,50.43
2023-04-10T02:35:02.016Z,49.40
2023-04-10T02:37:29.051Z,51.60
2023-04-10T02:39:55.738Z,49.63
2023-04-10T02:42:22.507Z,54.57
2023-04-10T02:44:49.110Z,51.10
2023-04-10T02:47:16.249Z,50.93
2023-04-10T02:49:42.846Z,48.17
2023-04-10T02:52:09.644Z,49.33
2023-04-10T02:54:36.272Z,48.80
2023-04-10T02:57:03.028Z,47.37
2023-04-10T02:59:29.581Z,50.50
2023-04-10T03:01:56.415Z,52.83
2023-04-10T03:04:23.172Z,50.83
2023-04-10T03:06:49.898Z,51.63
2023-04-10T03:09:17.088Z,51.60
2023-04-10T03:11:43.628Z,46.50
2023-04-10T03:14:13.287Z,50.37
2023-04-10T03:16:39.986Z,50.03
2023-04-10T03:19:06.609Z,52.43
2023-04-10T03:21:33.215Z,52.30
2023-04-10T03:23:59.830Z,56.03
2023-04-10T03:26:26.694Z,52.77
2023-04-10T03:28:53.338Z,51.07
2023-04-10T03:31:20.139Z,51.30
2023-04-10T03:33:46.787Z,55.80
2023-04-10T03:36:13.440Z,53.67
2023-04-10T03:38:39.990Z,46.17
2023-04-10T03:41:06.804Z,53.47
2023-04-10T03:43:33.351Z,51.43
2023-04-10T03:46:00.022Z,53.10
2023-04-10T03:48:28.543Z,52.80
2023-04-10T03:50:55.475Z,50.00
2023-04-10T03:53:22.026Z,54.63
2023-04-10T03:55:48.706Z,52.73
2023-04-10T03:58:15.455Z,52.77
2023-04-10T04:00:42.086Z,53.20
2023-04-10T04:03:09.111Z,50.40
2023-04-10T04:05:35.867Z,46.77
2023-04-10T04:08:05.153Z,48.53
2023-04-10T04:10:31.713Z,51.90
2023-04-10T04:12:58.529Z,50.80
2023-04-10T04:15:45.139Z,47.47
2023-04-10T04:18:14.078Z,48.50
2023-04-10T04:20:58.713Z,44.67
2023-04-10T04:23:45.555Z,42.90
2023-04-10T04:26:32.154Z,45.47
2023-04-10T04:29:07.901Z,46.17
2023-04-10T04:31:37.156Z,45.67
2023-04-10T04:34:03.871Z,46.57
2023-04-10T04:36:31.381Z,43.37
2023-04-10T04:38:57.923Z,42.17
2023-04-10T04:41:24.458Z,42.53
2023-04-10T04:43:53.595Z,41.13
2023-04-10T04:46:20.402Z,41.07
2023-04-10T04:48:46.969Z,38.83
2023-04-10T04:51:13.461Z,41.77
2023-04-10T04:53:40.305Z,41.63
2023-04-10T04:56:07.208Z,37.43
2023-04-10T04:58:33.932Z,44.73
2023-04-10T05:01:00.987Z,35.90
2023-04-10T05:03:30.877Z,40.77
2023-04-10T05:05:58.132Z,40.23
2023-04-10T05:08:24.760Z,36.60
2023-04-10T05:10:51.282Z,37.00
2023-04-10T05:13:17.856Z,38.37
2023-04-10T05:15:44.876Z,36.03
2023-04-10T05:18:11.664Z,34.93
2023-04-10T05:20:38.382Z,33.47
2023-04-10T05:23:05.095Z,31.47
2023-04-10T05:25:31.814Z,33.80
2023-04-10T05:27:58.498Z,33.13
2023-04-10T05:30:25.234Z,33.93
2023-04-10T05:32:51.845Z,29.67
2023-04-10T05:35:18.472Z,32.97
2023-04-10T05:37:45.340Z,26.73
2023-04-10T05:40:11.908Z,27.07
2023-04-10T05:42:38.525Z,29.67
2023-04-10T05:45:05.485Z,27.90
2023-04-10T05:47:32.249Z,26.77
2023-04-10T05:49:58.856Z,27.90
2023-04-10T05:52:25.403Z,27.90
2023-04-10T05:54:52.304Z,28.40
2023-04-10T05:57:18.953Z,26.23
2023-04-10T05:59:45.543Z,26.90
2023-04-10T06:02:12.578Z,23.23
2023-04-10T06:04:39.579Z,26.53
2023-04-10T06:07:06.552Z,25.17
2023-04-10T06:09:33.096Z,24.33
2023-04-10T06:11:59.761Z,25.50
2023-04-10T06:14:26.314Z,23.40
2023-04-10T06:16:52.818Z,24.80
2023-04-10T06:19:19.426Z,23.63
2023-04-10T06:21:46.801Z,22.50
2023-04-10T06:24:14.368Z,22.37
2023-04-10T06:26:40.995Z,23.10
2023-04-10T06:29:07.589Z,22.27
2023-04-10T06:31:34.420Z,20.47
2023-04-10T06:34:01.142Z,19.83
2023-04-10T06:36:27.864Z,19.33
2023-04-10T06:38:54.752Z,21.73
2023-04-10T06:41:21.582Z,21.07
2023-04-10T06:43:48.200Z,20.07
2023-04-10T06:46:16.353Z,20.03
2023-04-10T06:48:43.051Z,19.70
2023-04-10T06:51:09.743Z,19.57
2023-04-10T06:53:36.691Z,20.00
2023-04-10T06:56:03.811Z,19.97
2023-04-10T06:58:31.205Z,18.90
2023-04-10T07:00:58.978Z,16.70
2023-04-10T07:03:25.673Z,18.83
2023-04-10T07:05:52.237Z,17.27
2023-04-10T07:08:18.888Z,19.27
2023-04-10T07:10:45.468Z,18.57
2023-04-10T07:13:11.994Z,18.10
2023-04-10T07:15:38.584Z,17.37
2023-04-10T07:18:05.676Z,17.67
2023-04-10T07:20:32.422Z,16.97
2023-04-10T07:22:58.929Z,16.30
2023-04-10T07:25:25.533Z,16.13
2023-04-10T07:27:52.053Z,17.03
2023-04-10T07:30:19.080Z,17.97
2023-04-10T07:32:46.140Z,16.73
2023-04-10T07:35:12.862Z,15.30
2023-04-10T07:37:40.902Z,17.17
2023-04-10T07:40:08.062Z,15.47
2023-04-10T07:42:34.729Z,16.70
2023-04-10T07:45:02.328Z,15.50
2023-04-10T07:47:29.356Z,15.20
2023-04-10T07:49:56.591Z,16.50
2023-04-10T07:52:23.182Z,16.23
2023-04-10T07:54:49.775Z,14.90
2023-04-10T07:57:16.571Z,16.60
2023-04-10T07:59:43.222Z,13.53
2023-04-10T08:02:09.947Z,15.93
2023-04-10T08:04:36.802Z,14.73
2023-04-10T08:07:03.552Z,14.73
2023-04-10T08:09:30.450Z,13.70
2023-04-10T08:11:57.361Z,16.40
2023-04-10T08:14:23.926Z,16.27
2023-04-10T08:16:50.720Z,14.00
2023-04-10T08:19:17.375Z,14.70
2023-04-10T08:21:44.037Z,15.80
2023-04-10T08:24:10.738Z,15.40
2023-04-10T08:26:37.360Z,16.03
2023-04-10T08:29:03.915Z,13.90
2023-04-10T08:31:30.949Z,13.33
2023-04-10T08:33:58.553Z,14.33
2023-04-10T08:36:27.324Z,13.90
2023-04-10T08:38:53.959Z,14.23
2023-04-10T08:41:20.898Z,14.43
2023-04-10T08:43:47.600Z,12.90
2023-04-10T08:46:17.424Z,13.13
2023-04-10T08:48:52.618Z,12.77
2023-04-10T08:51:20.706Z,12.10
2023-04-10T08:53:54.257Z,13.13
2023-04-10T08:56:21.017Z,14.00
2023-04-10T08:58:48.222Z,14.83
2023-04-10T09:01:15.115Z,14.40
2023-04-10T09:03:42.571Z,12.30
2023-04-10T09:06:09.470Z,13.80
2023-04-10T09:08:36.185Z,12.27
2023-04-10T09:11:02.735Z,12.80
2023-04-10T09:13:42.364Z,12.77
2023-04-10T09:16:09.701Z,10.93
2023-04-10T09:18:43.532Z,12.30
2023-04-10T09:21:11.299Z,11.23
2023-04-10T09:23:37.930Z,11.50
2023-04-10T09:26:26.976Z,12.50
2023-04-10T09:28:58.043Z,10.63
2023-04-10T09:31:29.680Z,11.03
2023-04-10T09:34:09.457Z,11.23
2023-04-10T09:36:37.430Z,12.30
2023-04-10T09:39:04.961Z,10.63
2023-04-10T09:41:31.463Z,11.73
2023-04-10T09:44:11.884Z,11.87
2023-04-10T09:46:38.464Z,11.93
2023-04-10T09:49:06.152Z,11.70
2023-04-10T09:51:34.105Z,11.30
2023-04-10T09:54:01.359Z,10.00
2023-04-10T09:56:29.200Z,10.03
2023-04-10T09:58:59.838Z,13.40
2023-04-10T10:01:34.630Z,11.97
2023-04-10T10:04:02.494Z,12.30
2023-04-10T10:06:31.747Z,10.60
2023-04-10T10:09:07.407Z,11.10
2023-04-10T10:11:35.393Z,11.00
2023-04-10T10:14:15.699Z,11.03
2023-04-10T10:17:01.884Z,10.87
2023-04-10T10:19:33.108Z,10.40
2023-04-10T10:22:01.155Z,8.93
2023-04-10T10:24:28.298Z,9.30
2023-04-10T10:26:55.666Z,9.30
2023-04-10T10:29:23.721Z,8.70
2023-04-10T10:31:50.532Z,9.97
2023-04-10T10:34:17.287Z,9.83
2023-04-10T10:36:43.877Z,8.43
2023-04-10T10:39:18.530Z,9.53
2023-04-10T10:41:58.996Z,8.43
2023-04-10T10:44:35.065Z,8.00
2023-04-10T10:47:06.505Z,7.93
2023-04-10T10:49:51.914Z,7.43
2023-04-10T10:52:36.629Z,7.90
2023-04-10T10:55:22.052Z,7.23
2023-04-10T10:57:48.604Z,7.63
2023-04-10T11:00:16.258Z,9.10
2023-04-10T11:02:42.871Z,7.07
2023-04-10T11:05:09.670Z,8.10
2023-04-10T11:07:55.100Z,7.40
2023-04-10T11:10:41.553Z,9.27
2023-04-10T11:13:18.002Z,7.47
2023-04-10T11:15:44.914Z,8.27
2023-04-10T11:18:13.735Z,6.90
2023-04-10T11:20:59.689Z,6.83
2023-04-10T11:23:26.914Z,7.47
2023-04-10T11:25:54.130Z,6.80
2023-04-10T11:28:39.529Z,7.87
2023-04-10T11:31:22.604Z,7.73
2023-04-10T11:33:56.931Z,7.23
2023-04-10T11:36:24.027Z,6.57
2023-04-10T11:39:01.842Z,7.60
2023-04-10T11:41:30.750Z,6.17
2023-04-10T11:43:57.919Z,8.13
2023-04-10T11:46:24.645Z,7.70
2023-04-10T11:49:10.236Z,7.43
2023-04-10T11:51:37.443Z,7.67
2023-04-10T11:54:14.440Z,6.30
2023-04-10T11:56:42.088Z,7.03
2023-04-10T11:59:14.535Z,7.80
2023-04-10T12:01:43.303Z,7.10
2023-04-10T12:04:14.743Z,7.10
2023-04-10T12:06:44.053Z,6.20
2023-04-10T12:09:14.989Z,7.67
2023-04-10T12:11:48.895Z,6.13
2023-04-10T12:14:15.426Z,6.10
2023-04-10T12:16:42.212Z,5.67
2023-04-10T12:19:08.764Z,6.00
2023-04-10T12:21:39.515Z,6.07
2023-04-10T12:24:06.093Z,5.93
2023-04-10T12:26:32.649Z,7.10
2023-04-10T12:28:59.318Z,5.80
2023-04-10T12:31:33.475Z,7.97
2023-04-10T12:34:01.259Z,6.23
2023-04-10T12:36:29.951Z,5.93
2023-04-10T12:38:57.649Z,6.00
2023-04-10T12:41:28.670Z,5.60
2023-04-10T12:44:06.889Z,5.87
2023-04-10T12:46:33.676Z,6.40
2023-04-10T12:49:08.957Z,5.97
2023-04-10T12:52:02.025Z,5.33
2023-04-10T12:54:29.171Z,6.83
2023-04-10T12:56:56.126Z,6.50
2023-04-10T12:59:23.678Z,5.87
2023-04-10T13:01:50.830Z,7.37
2023-04-10T13:04:18.815Z,6.60
2023-04-10T13:06:46.221Z,6.60
2023-04-10T13:09:13.488Z,6.90
2023-04-10T13:11:41.346Z,9.00
2023-04-10T13:14:08.563Z,7.43
2023-04-10T13:16:35.739Z,6.27
2023-04-10T13:19:02.630Z,6.17
2023-04-10T13:21:29.888Z,6.63
2023-04-10T13:23:56.632Z,5.90
2023-04-10T13:26:23.686Z,6.67
2023-04-10T13:28:50.705Z,5.77
2023-04-10T13:31:17.346Z,6.30
2023-04-10T13:33:47.092Z,5.00
2023-04-10T13:36:14.452Z,6.30
2023-04-10T13:38:41.224Z,5.53
2023-04-10T13:41:08.083Z,4.97
2023-04-10T13:43:34.616Z,5.27
2023-04-10T13:46:01.182Z,6.83
2023-04-10T13:48:37.531Z,5.50
2023-04-10T13:51:07.545Z,4.87
2023-04-10T13:53:34.725Z,5.67
2023-04-10T13:56:01.239Z,4.43
2023-04-10T13:58:31.826Z,5.00
2023-04-10T14:00:58.885Z,5.70
2023-04-10T14:03:25.694Z,6.20
2023-04-10T14:05:52.948Z,5.23
2023-04-10T14:08:20.010Z,7.00
2023-04-10T14:10:50.717Z,5.50
2023-04-10T14:13:17.779Z,6.23
2023-04-10T14:15:44.621Z,5.03
2023-04-10T14:18:11.358Z,6.13
2023-04-10T14:20:38.102Z,4.87
2023-04-10T14:23:05.434Z,4.40
2023-04-10T14:25:31.929Z,4.47
2023-04-10T14:27:59.377Z,4.30
2023-04-10T14:30:30.789Z,5.30
2023-04-10T14:32:57.554Z,3.97
2023-04-10T14:35:24.170Z,4.13
2023-04-10T14:37:50.679Z,5.10
2023-04-10T14:40:17.283Z,3.90
2023-04-10T14:42:43.782Z,3.37
2023-04-10T14:45:10.769Z,4.07
2023-04-10T14:47:37.433Z,3.30
2023-04-10T14:50:04.160Z,3.40
2023-04-10T14:52:30.698Z,3.30
2023-04-10T14:54:57.218Z,3.17
2023-04-10T14:57:23.714Z,3.83
2023-04-10T14:59:50.334Z,3.60
2023-04-10T15:02:16.897Z,3.17
2023-04-10T15:04:43.578Z,4.10
2023-04-10T15:07:10.123Z,3.57
2023-04-10T15:09:36.757Z,2.93
2023-04-10T15:12:03.301Z,3.03
2023-04-10T15:14:31.079Z,3.67
2023-04-10T15:16:57.715Z,3.30
2023-04-10T15:19:24.390Z,3.47
2023-04-10T15:21:50.960Z,2.90
2023-04-10T15:24:17.557Z,3.30
2023-04-10T15:26:47.455Z,3.40
2023-04-10T15:29:14.380Z,4.50
2023-04-10T15:31:41.008Z,2.57
2023-04-10T15:34:07.701Z,2.70
2023-04-10T15:36:34.290Z,3.50
2023-04-10T15:39:02.867Z,3.73
2023-04-10T15:41:31.788Z,4.77
2023-04-10T15:43:58.632Z,3.00
2023-04-10T15:46:25.420Z,3.27
2023-04-10T15:48:52.022Z,3.07
2023-04-10T15:51:18.606Z,3.13
2023-04-10T15:53:45.126Z,2.90
2023-04-10T15:56:11.709Z,2.77
2023-04-10T15:58:38.256Z,3.03
2023-04-10T16:01:04.964Z,2.80
2023-04-10T16:03:31.784Z,3.67
2023-04-10T16:05:58.764Z,4.47
2023-04-10T16:08:26.317Z,6.17
2023-04-10T16:10:53.282Z,2.53
2023-04-10T16:13:19.836Z,2.53
2023-04-10T16:15:47.230Z,2.73
2023-04-10T16:18:13.881Z,3.50
2023-04-10T16:20:41.169Z,3.40
2023-04-10T16:23:07.733Z,3.00
2023-04-10T16:25:34.297Z,3.20
2023-04-10T16:28:08.045Z,4.57
2023-04-10T16:30:35.409Z,3.93
2023-04-10T16:33:02.344Z,3.80
2023-04-10T16:35:29.096Z,4.00
2023-04-10T16:37:55.639Z,3.43
2023-04-10T16:40:22.161Z,2.80
2023-04-10T16:42:48.699Z,3.40
2023-04-10T16:45:15.499Z,4.13
2023-04-10T16:47:44.629Z,2.93
2023-04-10T16:50:11.465Z,3.73
2023-04-10T16:52:38.076Z,2.83
2023-04-10T16:55:04.953Z,3.63
2023-04-10T16:57:32.143Z,3.43
2023-04-10T16:59:59.340Z,3.40
2023-04-10T17:02:26.402Z,3.53
2023-04-10T17:04:56.357Z,3.30
2023-04-10T17:07:23.320Z,3.43
2023-04-10T17:09:50.066Z,3.20
2023-04-10T17:12:16.710Z,3.97
2023-04-10T17:14:43.384Z,3.20
2023-04-10T17:17:10.093Z,3.50
2023-04-10T17:19:36.764Z,3.60
2023-04-10T17:22:03.610Z,3.47
2023-04-10T17:24:31.544Z,3.97
2023-04-10T17:26:58.475Z,3.27
2023-04-10T17:29:25.948Z,3.70
2023-04-10T17:31:52.625Z,3.33
2023-04-10T17:34:19.245Z,4.27
2023-04-10T17:36:45.728Z,4.57
2023-04-10T17:39:12.221Z,3.93
2023-04-10T17:41:38.806Z,3.47
2023-04-10T17:44:05.681Z,3.77
2023-04-10T17:46:32.297Z,3.43
2023-04-10T17:49:01.490Z,4.17
2023-04-10T17:51:28.401Z,3.70
2023-04-10T17:53:57.880Z,4.10
2023-04-10T17:56:24.417Z,4.23
2023-04-10T17:58:52.730Z,3.00
2023-04-10T18:01:23.651Z,4.13
2023-04-10T18:03:52.546Z,4.03
2023-04-10T18:06:19.759Z,3.00
2023-04-10T18:08:46.468Z,3.43
2023-04-10T18:11:13.930Z,3.47
2023-04-10T18:13:41.243Z,5.13
2023-04-10T18:16:08.360Z,4.53
2023-04-10T18:18:35.585Z,3.07
2023-04-10T18:21:03.150Z,3.33
2023-04-10T18:23:31.285Z,3.37
2023-04-10T18:25:58.361Z,3.20
2023-04-10T18:28:25.214Z,3.27
2023-04-10T18:30:56.922Z,3.03
2023-04-10T18:33:26.638Z,3.43
2023-04-10T18:35:57.379Z,3.83
2023-04-10T18:38:24.372Z,3.23
2023-04-10T18:40:54.197Z,6.37
2023-04-10T18:43:20.998Z,3.70
2023-04-10T18:45:47.562Z,2.90
2023-04-10T18:48:14.210Z,3.27
2023-04-10T18:50:41.085Z,2.80
2023-04-10T18:53:07.680Z,3.70
2023-04-10T18:55:34.213Z,2.83
2023-04-10T18:58:00.865Z,4.00
2023-04-10T19:00:27.480Z,3.30
2023-04-10T19:02:54.819Z,3.50
2023-04-10T19:05:21.969Z,3.73
2023-04-10T19:08:00.769Z,3.47
2023-04-10T19:10:30.978Z,4.07
2023-04-10T19:12:57.540Z,4.80
2023-04-10T19:15:24.539Z,3.70
2023-04-10T19:17:54.727Z,4.27
2023-04-10T19:20:52.241Z,4.50
2023-04-10T19:23:08.144Z,4.03
2023-04-10T19:25:34.676Z,3.10
2023-04-10T19:28:01.207Z,6.00
2023-04-10T19:30:28.567Z,3.97
2023-04-10T19:32:55.908Z,4.60
2023-04-10T19:35:22.770Z,4.07
2023-04-10T19:37:49.943Z,3.60
2023-04-10T19:40:17.572Z,3.57
2023-04-10T19:42:44.096Z,3.97
2023-04-10T19:45:11.229Z,3.57
2023-04-10T19:47:37.899Z,3.03
2023-04-10T19:50:04.538Z,3.10
2023-04-10T19:52:31.200Z,3.10
2023-04-10T19:54:57.813Z,2.70
2023-04-10T19:57:24.501Z,4.17
2023-04-10T19:59:51.457Z,4.43
2023-04-10T20:02:18.547Z,3.40
2023-04-10T20:04:47.208Z,3.90
2023-04-10T20:07:15.276Z,3.10
2023-04-10T20:09:41.920Z,4.93
2023-04-10T20:12:09.252Z,3.20
2023-04-10T20:14:35.888Z,2.77
2023-04-10T20:17:02.458Z,3.13
2023-04-10T20:19:29.124Z,3.57
2023-04-10T20:21:55.876Z,4.33
2023-04-10T20:24:22.387Z,4.70
2023-04-10T20:26:49.021Z,4.10
2023-04-10T20:29:15.544Z,3.93
2023-04-10T20:31:42.168Z,4.83
2023-04-10T20:34:08.991Z,5.23
2023-04-10T20:36:35.649Z,4.17
2023-04-10T20:39:02.374Z,8.03
2023-04-10T20:41:29.078Z,6.23
2023-04-10T20:43:57.495Z,5.90
2023-04-10T20:46:27.076Z,7.57
2023-04-10T20:48:59.340Z,5.87
2023-04-10T20:51:27.439Z,5.27
2023-04-10T20:53:54.291Z,5.20
2023-04-10T20:56:24.812Z,7.47
2023-04-10T20:58:53.995Z,4.90
2023-04-10T21:01:20.776Z,5.40
2023-04-10T21:03:47.484Z,5.23
2023-04-10T21:06:15.436Z,5.53
2023-04-10T21:08:41.991Z,5.70
2023-04-10T21:11:08.676Z,6.23
2023-04-10T21:13:37.885Z,5.57
2023-04-10T21:16:05.370Z,6.57
2023-04-10T21:18:32.163Z,6.87
2023-04-10T21:20:58.744Z,6.53
2023-04-10T21:23:25.528Z,6.27
2023-04-10T21:25:55.038Z,5.90
2023-04-10T21:28:21.572Z,7.07
2023-04-10T21:30:48.160Z,6.60
2023-04-10T21:33:14.767Z,5.00
2023-04-10T21:35:45.173Z,5.00
2023-04-10T21:38:12.101Z,4.63
2023-04-10T21:40:38.718Z,7.20
2023-04-10T21:43:05.334Z,4.87
2023-04-10T21:45:32.124Z,5.73
2023-04-10T21:48:00.439Z,5.53
2023-04-10T21:50:27.135Z,6.43
2023-04-10T21:52:53.662Z,6.37
2023-04-10T21:55:20.275Z,4.90
2023-04-10T21:57:46.798Z,6.27
2023-04-10T22:00:13.928Z,6.33
2023-04-10T22:02:40.771Z,4.87
2023-04-10T22:05:07.658Z,5.83
2023-04-10T22:07:34.124Z,7.87
2023-04-10T22:10:00.897Z,7.00
2023-04-10T22:12:27.550Z,6.37
2023-04-10T22:14:54.080Z,7.73
2023-04-10T22:17:20.957Z,10.13
2023-04-10T22:19:47.607Z,7.10
2023-04-10T22:22:14.125Z,6.37
2023-04-10T22:24:41.038Z,7.80
2023-04-10T22:27:10.950Z,7.17
2023-04-10T22:29:37.479Z,6.90
2023-04-10T22:32:04.115Z,7.43
2023-04-10T22:34:30.712Z,7.33
2023-04-10T22:36:57.764Z,9.27
2023-04-10T22:39:24.366Z,7.30
2023-04-10T22:41:51.075Z,9.13
2023-04-10T22:44:17.732Z,7.27
2023-04-10T22:46:44.325Z,8.03
2023-04-10T22:49:10.981Z,6.77
2023-04-10T22:51:37.527Z,5.57
2023-04-10T22:54:04.128Z,6.47
2023-04-10T22:56:30.670Z,7.20
2023-04-10T22:58:57.372Z,9.00
2023-04-10T23:01:24.000Z,6.87
2023-04-10T23:03:53.739Z,7.00
2023-04-10T23:06:20.769Z,5.97
2023-04-10T23:08:47.399Z,6.23
2023-04-10T23:11:14.026Z,5.97
2023-04-10T23:13:41.859Z,4.93
2023-04-10T23:16:08.757Z,3.90
2023-04-10T23:18:36.999Z,4.03
2023-04-10T23:21:05.058Z,4.20
2023-04-10T23:23:31.571Z,4.57
2023-04-10T23:26:01.663Z,5.90
2023-04-10T23:28:28.684Z,5.20
2023-04-10T23:30:55.327Z,7.10
2023-04-10T23:33:22.351Z,6.87
2023-04-10T23:35:49.097Z,4.97
2023-04-10T23:38:16.024Z,5.37
2023-04-10T23:40:42.628Z,5.67
2023-04-10T23:43:09.187Z,5.03
2023-04-10T23:45:35.728Z,5.60
2023-04-10T23:48:02.344Z,4.03
2023-04-10T23:50:28.979Z,3.70
2023-04-10T23:52:55.807Z,4.27
2023-04-10T23:55:22.772Z,2.73
2023-04-10T23:57:49.333Z,3.40
